sensor_id;sensor_type;location;lat;lon;timestamp;P1;durP1;ratioP1;P2;durP2;ratioP2
76136;SDS011;68622;53.128;17.966;2023-08-31T00:01:32;6.40;;;1.60;;
76136;SDS011;68622;53.128;17.966;2023-08-31T00:03:59;6.00;;;1.40;;
76136;SDS011;68622;53.128;17.966;2023-08-31T00:06:26;5.80;;;1.50;;
76136;SDS011;68622;53.128;17.966;2023-08-31T00:08:53;10.70;;;2.00;;
76136;SDS011;68622;53.128;17.966;2023-08-31T00:11:19;5.60;;;1.90;;
76136;SDS011;68622;53.128;17.966;2023-08-31T00:13:46;6.20;;;1.70;;
76136;SDS011;68622;53.128;17.966;2023-08-31T00:16:12;6.10;;;1.50;;
76136;SDS011;68622;53.128;17.966;2023-08-31T00:18:40;5.40;;;1.90;;
76136;SDS011;68622;53.128;17.966;2023-08-31T00:21:07;8.40;;;2.60;;
76136;SDS011;68622;53.128;17.966;2023-08-31T00:23:34;6.90;;;2.10;;
76136;SDS011;68622;53.128;17.966;2023-08-31T00:26:03;7.50;;;2.30;;
76136;SDS011;68622;53.128;17.966;2023-08-31T00:28:30;6.80;;;2.00;;
76136;SDS011;68622;53.128;17.966;2023-08-31T00:31:00;6.00;;;2.30;;
76136;SDS011;68622;53.128;17.966;2023-08-31T00:33:30;7.00;;;2.20;;
76136;SDS011;68622;53.128;17.966;2023-08-31T00:36:00;7.00;;;2.90;;
76136;SDS011;68622;53.128;17.966;2023-08-31T00:38:30;7.80;;;2.60;;
76136;SDS011;68622;53.128;17.966;2023-08-31T00:40:57;7.50;;;2.70;;
76136;SDS011;68622;53.128;17.966;2023-08-31T00:43:24;6.90;;;2.70;;
76136;SDS011;68622;53.128;17.966;2023-08-31T00:45:52;8.00;;;3.00;;
76136;SDS011;68622;53.128;17.966;2023-08-31T00:48:25;6.60;;;3.10;;
76136;SDS011;68622;53.128;17.966;2023-08-31T00:50:52;8.00;;;3.10;;
76136;SDS011;68622;53.128;17.966;2023-08-31T00:53:20;7.80;;;2.60;;
76136;SDS011;68622;53.128;17.966;2023-08-31T00:55:48;8.60;;;3.60;;
76136;SDS011;68622;53.128;17.966;2023-08-31T00:58:14;11.00;;;3.20;;
76136;SDS011;68622;53.128;17.966;2023-08-31T01:03:33;7.10;;;2.80;;
76136;SDS011;68622;53.128;17.966;2023-08-31T01:06:12;9.30;;;3.50;;
76136;SDS011;68622;53.128;17.966;2023-08-31T01:08:56;7.80;;;3.10;;
76136;SDS011;68622;53.128;17.966;2023-08-31T01:14:23;8.20;;;3.40;;
76136;SDS011;68622;53.128;17.966;2023-08-31T01:16:51;6.50;;;2.80;;
76136;SDS011;68622;53.128;17.966;2023-08-31T01:21:57;9.40;;;3.40;;
76136;SDS011;68622;53.128;17.966;2023-08-31T01:24:30;8.80;;;3.10;;
76136;SDS011;68622;53.128;17.966;2023-08-31T01:26:57;7.60;;;3.50;;
76136;SDS011;68622;53.128;17.966;2023-08-31T01:29:24;10.40;;;3.10;;
76136;SDS011;68622;53.128;17.966;2023-08-31T01:31:52;9.80;;;3.20;;
76136;SDS011;68622;53.128;17.966;2023-08-31T01:34:18;8.00;;;3.30;;
76136;SDS011;68622;53.128;17.966;2023-08-31T01:36:46;7.50;;;3.00;;
76136;SDS011;68622;53.128;17.966;2023-08-31T01:39:24;8.20;;;3.30;;
76136;SDS011;68622;53.128;17.966;2023-08-31T01:42:02;7.70;;;3.20;;
76136;SDS011;68622;53.128;17.966;2023-08-31T01:44:32;8.80;;;2.60;;
76136;SDS011;68622;53.128;17.966;2023-08-31T01:47:06;7.20;;;2.60;;
76136;SDS011;68622;53.128;17.966;2023-08-31T01:49:39;8.00;;;3.10;;
76136;SDS011;68622;53.128;17.966;2023-08-31T01:52:06;7.90;;;2.70;;
76136;SDS011;68622;53.128;17.966;2023-08-31T01:54:33;7.10;;;2.70;;
76136;SDS011;68622;53.128;17.966;2023-08-31T01:57:00;9.20;;;2.60;;
76136;SDS011;68622;53.128;17.966;2023-08-31T01:59:29;8.80;;;2.70;;
76136;SDS011;68622;53.128;17.966;2023-08-31T02:01:55;7.30;;;3.00;;
76136;SDS011;68622;53.128;17.966;2023-08-31T02:04:22;8.50;;;3.00;;
76136;SDS011;68622;53.128;17.966;2023-08-31T02:06:48;8.40;;;2.70;;
76136;SDS011;68622;53.128;17.966;2023-08-31T02:09:15;8.30;;;2.60;;
76136;SDS011;68622;53.128;17.966;2023-08-31T02:11:42;6.60;;;2.50;;
76136;SDS011;68622;53.128;17.966;2023-08-31T02:14:08;7.00;;;2.80;;
76136;SDS011;68622;53.128;17.966;2023-08-31T02:16:35;8.60;;;2.50;;
76136;SDS011;68622;53.128;17.966;2023-08-31T02:19:02;6.40;;;2.40;;
76136;SDS011;68622;53.128;17.966;2023-08-31T02:21:28;7.80;;;2.80;;
76136;SDS011;68622;53.128;17.966;2023-08-31T02:23:55;6.60;;;2.60;;
76136;SDS011;68622;53.128;17.966;2023-08-31T02:26:22;7.90;;;2.40;;
76136;SDS011;68622;53.128;17.966;2023-08-31T02:28:48;10.00;;;3.40;;
76136;SDS011;68622;53.128;17.966;2023-08-31T02:31:16;6.90;;;2.70;;
76136;SDS011;68622;53.128;17.966;2023-08-31T02:33:45;7.70;;;3.30;;
76136;SDS011;68622;53.128;17.966;2023-08-31T02:36:13;9.90;;;3.10;;
76136;SDS011;68622;53.128;17.966;2023-08-31T02:38:42;8.50;;;3.50;;
76136;SDS011;68622;53.128;17.966;2023-08-31T02:41:09;8.20;;;3.60;;
76136;SDS011;68622;53.128;17.966;2023-08-31T02:43:36;7.10;;;3.60;;
76136;SDS011;68622;53.128;17.966;2023-08-31T02:46:03;9.60;;;3.90;;
76136;SDS011;68622;53.128;17.966;2023-08-31T02:48:29;7.70;;;3.40;;
76136;SDS011;68622;53.128;17.966;2023-08-31T02:50:58;6.60;;;2.90;;
76136;SDS011;68622;53.128;17.966;2023-08-31T02:53:29;8.10;;;3.50;;
76136;SDS011;68622;53.128;17.966;2023-08-31T02:55:57;10.20;;;3.30;;
76136;SDS011;68622;53.128;17.966;2023-08-31T02:58:23;10.80;;;3.10;;
76136;SDS011;68622;53.128;17.966;2023-08-31T03:00:51;7.30;;;3.10;;
76136;SDS011;68622;53.128;17.966;2023-08-31T03:03:18;8.00;;;3.30;;
76136;SDS011;68622;53.128;17.966;2023-08-31T03:05:45;7.90;;;2.90;;
76136;SDS011;68622;53.128;17.966;2023-08-31T03:08:12;7.90;;;3.30;;
76136;SDS011;68622;53.128;17.966;2023-08-31T03:10:40;11.70;;;3.40;;
76136;SDS011;68622;53.128;17.966;2023-08-31T03:13:07;9.60;;;4.10;;
76136;SDS011;68622;53.128;17.966;2023-08-31T03:15:33;9.70;;;3.20;;
76136;SDS011;68622;53.128;17.966;2023-08-31T03:18:00;12.70;;;3.90;;
76136;SDS011;68622;53.128;17.966;2023-08-31T03:20:28;8.90;;;3.80;;
76136;SDS011;68622;53.128;17.966;2023-08-31T03:22:54;7.00;;;3.10;;
76136;SDS011;68622;53.128;17.966;2023-08-31T03:25:21;9.20;;;3.40;;
76136;SDS011;68622;53.128;17.966;2023-08-31T03:27:48;9.30;;;3.30;;
76136;SDS011;68622;53.128;17.966;2023-08-31T03:30:14;12.30;;;4.10;;
76136;SDS011;68622;53.128;17.966;2023-08-31T03:32:41;11.30;;;3.50;;
76136;SDS011;68622;53.128;17.966;2023-08-31T03:35:08;10.10;;;3.20;;
76136;SDS011;68622;53.128;17.966;2023-08-31T03:37:35;7.90;;;3.00;;
76136;SDS011;68622;53.128;17.966;2023-08-31T03:40:02;10.10;;;3.60;;
76136;SDS011;68622;53.128;17.966;2023-08-31T03:42:30;10.10;;;3.80;;
76136;SDS011;68622;53.128;17.966;2023-08-31T03:44:57;7.20;;;3.50;;
76136;SDS011;68622;53.128;17.966;2023-08-31T03:47:24;8.00;;;3.10;;
76136;SDS011;68622;53.128;17.966;2023-08-31T03:49:51;7.40;;;2.70;;
76136;SDS011;68622;53.128;17.966;2023-08-31T03:52:17;10.30;;;3.70;;
76136;SDS011;68622;53.128;17.966;2023-08-31T03:54:44;9.90;;;3.50;;
76136;SDS011;68622;53.128;17.966;2023-08-31T03:57:11;10.80;;;4.20;;
76136;SDS011;68622;53.128;17.966;2023-08-31T03:59:37;15.80;;;4.00;;
76136;SDS011;68622;53.128;17.966;2023-08-31T04:02:04;13.40;;;4.00;;
76136;SDS011;68622;53.128;17.966;2023-08-31T04:04:30;12.60;;;5.00;;
76136;SDS011;68622;53.128;17.966;2023-08-31T04:06:57;9.30;;;3.50;;
76136;SDS011;68622;53.128;17.966;2023-08-31T04:09:25;10.40;;;3.80;;
76136;SDS011;68622;53.128;17.966;2023-08-31T04:11:53;10.20;;;3.60;;
76136;SDS011;68622;53.128;17.966;2023-08-31T04:14:19;9.40;;;3.50;;
76136;SDS011;68622;53.128;17.966;2023-08-31T04:16:46;10.40;;;3.30;;
76136;SDS011;68622;53.128;17.966;2023-08-31T04:19:16;11.00;;;3.70;;
76136;SDS011;68622;53.128;17.966;2023-08-31T04:21:43;9.90;;;3.90;;
76136;SDS011;68622;53.128;17.966;2023-08-31T04:24:10;9.80;;;3.70;;
76136;SDS011;68622;53.128;17.966;2023-08-31T04:26:36;12.40;;;4.00;;
76136;SDS011;68622;53.128;17.966;2023-08-31T04:29:03;8.70;;;3.50;;
76136;SDS011;68622;53.128;17.966;2023-08-31T04:31:32;16.40;;;5.40;;
76136;SDS011;68622;53.128;17.966;2023-08-31T04:34:00;11.60;;;4.60;;
76136;SDS011;68622;53.128;17.966;2023-08-31T04:36:27;11.10;;;4.20;;
76136;SDS011;68622;53.128;17.966;2023-08-31T04:38:53;12.00;;;4.20;;
76136;SDS011;68622;53.128;17.966;2023-08-31T04:41:20;11.90;;;4.00;;
76136;SDS011;68622;53.128;17.966;2023-08-31T04:43:47;14.80;;;4.20;;
76136;SDS011;68622;53.128;17.966;2023-08-31T04:46:16;9.90;;;3.80;;
76136;SDS011;68622;53.128;17.966;2023-08-31T04:48:43;10.30;;;3.50;;
76136;SDS011;68622;53.128;17.966;2023-08-31T04:51:29;9.80;;;4.00;;
76136;SDS011;68622;53.128;17.966;2023-08-31T04:53:58;10.90;;;4.40;;
76136;SDS011;68622;53.128;17.966;2023-08-31T04:56:30;14.30;;;6.20;;
76136;SDS011;68622;53.128;17.966;2023-08-31T04:58:58;10.50;;;4.50;;
76136;SDS011;68622;53.128;17.966;2023-08-31T05:01:25;10.60;;;4.20;;
76136;SDS011;68622;53.128;17.966;2023-08-31T05:03:52;12.10;;;4.10;;
76136;SDS011;68622;53.128;17.966;2023-08-31T05:06:19;11.40;;;4.20;;
76136;SDS011;68622;53.128;17.966;2023-08-31T05:08:49;12.30;;;5.20;;
76136;SDS011;68622;53.128;17.966;2023-08-31T05:11:16;11.40;;;4.50;;
76136;SDS011;68622;53.128;17.966;2023-08-31T05:13:42;12.40;;;4.30;;
76136;SDS011;68622;53.128;17.966;2023-08-31T05:16:11;12.30;;;4.10;;
76136;SDS011;68622;53.128;17.966;2023-08-31T05:18:38;8.90;;;4.10;;
76136;SDS011;68622;53.128;17.966;2023-08-31T05:21:06;12.20;;;4.80;;
76136;SDS011;68622;53.128;17.966;2023-08-31T05:23:33;21.00;;;4.40;;
76136;SDS011;68622;53.128;17.966;2023-08-31T05:26:00;11.90;;;3.40;;
76136;SDS011;68622;53.128;17.966;2023-08-31T05:28:27;9.50;;;3.80;;
76136;SDS011;68622;53.128;17.966;2023-08-31T05:30:55;9.90;;;3.40;;
76136;SDS011;68622;53.128;17.966;2023-08-31T05:33:23;11.50;;;4.10;;
76136;SDS011;68622;53.128;17.966;2023-08-31T05:35:53;9.40;;;4.10;;
76136;SDS011;68622;53.128;17.966;2023-08-31T05:38:21;13.50;;;3.80;;
76136;SDS011;68622;53.128;17.966;2023-08-31T05:40:47;14.20;;;4.60;;
76136;SDS011;68622;53.128;17.966;2023-08-31T05:43:14;12.90;;;4.30;;
76136;SDS011;68622;53.128;17.966;2023-08-31T05:45:42;11.20;;;4.80;;
76136;SDS011;68622;53.128;17.966;2023-08-31T05:48:08;10.50;;;4.30;;
76136;SDS011;68622;53.128;17.966;2023-08-31T05:50:35;15.80;;;4.90;;
76136;SDS011;68622;53.128;17.966;2023-08-31T05:53:05;13.00;;;5.00;;
76136;SDS011;68622;53.128;17.966;2023-08-31T05:55:31;11.80;;;3.60;;
76136;SDS011;68622;53.128;17.966;2023-08-31T05:57:59;12.50;;;6.60;;
76136;SDS011;68622;53.128;17.966;2023-08-31T06:00:26;11.00;;;6.20;;
76136;SDS011;68622;53.128;17.966;2023-08-31T06:02:53;8.70;;;4.40;;
76136;SDS011;68622;53.128;17.966;2023-08-31T06:05:20;10.60;;;4.30;;
76136;SDS011;68622;53.128;17.966;2023-08-31T06:07:46;11.70;;;4.20;;
76136;SDS011;68622;53.128;17.966;2023-08-31T06:10:13;12.60;;;4.40;;
76136;SDS011;68622;53.128;17.966;2023-08-31T06:12:41;11.90;;;4.80;;
76136;SDS011;68622;53.128;17.966;2023-08-31T06:15:07;15.80;;;7.00;;
76136;SDS011;68622;53.128;17.966;2023-08-31T06:17:34;11.00;;;4.90;;
76136;SDS011;68622;53.128;17.966;2023-08-31T06:20:01;15.40;;;4.90;;
76136;SDS011;68622;53.128;17.966;2023-08-31T06:22:28;14.50;;;5.30;;
76136;SDS011;68622;53.128;17.966;2023-08-31T06:24:55;10.70;;;4.20;;
76136;SDS011;68622;53.128;17.966;2023-08-31T06:27:21;8.10;;;4.50;;
76136;SDS011;68622;53.128;17.966;2023-08-31T06:29:48;15.60;;;4.90;;
76136;SDS011;68622;53.128;17.966;2023-08-31T06:32:15;9.70;;;4.40;;
76136;SDS011;68622;53.128;17.966;2023-08-31T06:34:43;10.50;;;4.50;;
76136;SDS011;68622;53.128;17.966;2023-08-31T06:37:10;8.60;;;3.90;;
76136;SDS011;68622;53.128;17.966;2023-08-31T06:39:37;12.10;;;3.90;;
76136;SDS011;68622;53.128;17.966;2023-08-31T06:42:04;12.50;;;3.90;;
76136;SDS011;68622;53.128;17.966;2023-08-31T06:44:31;10.40;;;3.60;;
76136;SDS011;68622;53.128;17.966;2023-08-31T06:46:57;8.50;;;4.00;;
76136;SDS011;68622;53.128;17.966;2023-08-31T06:49:24;12.20;;;3.90;;
76136;SDS011;68622;53.128;17.966;2023-08-31T06:51:50;17.70;;;15.40;;
76136;SDS011;68622;53.128;17.966;2023-08-31T06:54:17;12.10;;;4.50;;
76136;SDS011;68622;53.128;17.966;2023-08-31T06:56:44;11.50;;;4.10;;
76136;SDS011;68622;53.128;17.966;2023-08-31T06:59:10;9.20;;;3.60;;
76136;SDS011;68622;53.128;17.966;2023-08-31T07:01:37;11.00;;;3.60;;
76136;SDS011;68622;53.128;17.966;2023-08-31T07:04:04;7.90;;;3.90;;
76136;SDS011;68622;53.128;17.966;2023-08-31T07:06:33;11.00;;;5.10;;
76136;SDS011;68622;53.128;17.966;2023-08-31T07:09:00;7.60;;;4.00;;
76136;SDS011;68622;53.128;17.966;2023-08-31T07:11:27;8.70;;;3.30;;
76136;SDS011;68622;53.128;17.966;2023-08-31T07:13:54;6.80;;;3.60;;
76136;SDS011;68622;53.128;17.966;2023-08-31T07:16:20;11.40;;;3.70;;
76136;SDS011;68622;53.128;17.966;2023-08-31T07:18:47;8.70;;;3.20;;
76136;SDS011;68622;53.128;17.966;2023-08-31T07:21:14;8.30;;;3.50;;
76136;SDS011;68622;53.128;17.966;2023-08-31T07:23:40;8.00;;;3.40;;
76136;SDS011;68622;53.128;17.966;2023-08-31T07:26:07;10.30;;;3.40;;
76136;SDS011;68622;53.128;17.966;2023-08-31T07:28:34;11.00;;;4.10;;
76136;SDS011;68622;53.128;17.966;2023-08-31T07:31:04;9.10;;;4.10;;
76136;SDS011;68622;53.128;17.966;2023-08-31T07:33:32;7.90;;;3.20;;
76136;SDS011;68622;53.128;17.966;2023-08-31T07:36:03;8.10;;;3.30;;
76136;SDS011;68622;53.128;17.966;2023-08-31T07:38:31;8.20;;;3.30;;
76136;SDS011;68622;53.128;17.966;2023-08-31T07:40:59;7.10;;;2.80;;
76136;SDS011;68622;53.128;17.966;2023-08-31T07:43:26;6.30;;;2.80;;
76136;SDS011;68622;53.128;17.966;2023-08-31T07:45:53;7.90;;;2.80;;
76136;SDS011;68622;53.128;17.966;2023-08-31T07:48:20;6.70;;;2.70;;
76136;SDS011;68622;53.128;17.966;2023-08-31T07:50:46;9.60;;;3.20;;
76136;SDS011;68622;53.128;17.966;2023-08-31T07:53:15;6.50;;;2.60;;
76136;SDS011;68622;53.128;17.966;2023-08-31T07:55:41;7.80;;;3.20;;
76136;SDS011;68622;53.128;17.966;2023-08-31T07:58:08;9.30;;;3.30;;
76136;SDS011;68622;53.128;17.966;2023-08-31T08:00:34;8.20;;;2.90;;
76136;SDS011;68622;53.128;17.966;2023-08-31T08:03:01;7.70;;;3.30;;
76136;SDS011;68622;53.128;17.966;2023-08-31T08:05:28;8.70;;;3.30;;
76136;SDS011;68622;53.128;17.966;2023-08-31T08:07:54;8.60;;;3.30;;
76136;SDS011;68622;53.128;17.966;2023-08-31T08:10:21;7.70;;;3.40;;
76136;SDS011;68622;53.128;17.966;2023-08-31T08:12:47;7.80;;;3.10;;
76136;SDS011;68622;53.128;17.966;2023-08-31T08:15:14;7.90;;;2.60;;
76136;SDS011;68622;53.128;17.966;2023-08-31T08:17:41;8.30;;;2.60;;
76136;SDS011;68622;53.128;17.966;2023-08-31T08:20:07;6.50;;;2.80;;
76136;SDS011;68622;53.128;17.966;2023-08-31T08:22:35;5.60;;;2.90;;
76136;SDS011;68622;53.128;17.966;2023-08-31T08:25:02;9.30;;;3.50;;
76136;SDS011;68622;53.128;17.966;2023-08-31T08:27:29;7.60;;;3.00;;
76136;SDS011;68622;53.128;17.966;2023-08-31T08:29:56;6.90;;;2.60;;
76136;SDS011;68622;53.128;17.966;2023-08-31T08:32:22;9.00;;;2.80;;
76136;SDS011;68622;53.128;17.966;2023-08-31T08:34:49;6.30;;;3.20;;
76136;SDS011;68622;53.128;17.966;2023-08-31T08:37:17;5.70;;;2.70;;
76136;SDS011;68622;53.128;17.966;2023-08-31T08:39:47;6.00;;;3.10;;
76136;SDS011;68622;53.128;17.966;2023-08-31T08:42:14;6.90;;;3.30;;
76136;SDS011;68622;53.128;17.966;2023-08-31T08:44:44;7.90;;;2.90;;
76136;SDS011;68622;53.128;17.966;2023-08-31T08:47:11;7.50;;;3.50;;
76136;SDS011;68622;53.128;17.966;2023-08-31T08:49:39;7.30;;;3.80;;
76136;SDS011;68622;53.128;17.966;2023-08-31T08:52:06;7.40;;;4.40;;
76136;SDS011;68622;53.128;17.966;2023-08-31T08:54:33;8.10;;;4.70;;
76136;SDS011;68622;53.128;17.966;2023-08-31T08:57:01;10.90;;;6.20;;
76136;SDS011;68622;53.128;17.966;2023-08-31T08:59:32;7.60;;;5.10;;
76136;SDS011;68622;53.128;17.966;2023-08-31T09:01:59;9.60;;;5.70;;
76136;SDS011;68622;53.128;17.966;2023-08-31T09:04:26;8.30;;;6.10;;
76136;SDS011;68622;53.128;17.966;2023-08-31T09:06:56;10.00;;;6.20;;
76136;SDS011;68622;53.128;17.966;2023-08-31T09:09:22;12.30;;;7.70;;
76136;SDS011;68622;53.128;17.966;2023-08-31T09:11:49;12.90;;;7.20;;
76136;SDS011;68622;53.128;17.966;2023-08-31T09:14:16;10.10;;;7.60;;
76136;SDS011;68622;53.128;17.966;2023-08-31T09:16:47;9.50;;;6.50;;
76136;SDS011;68622;53.128;17.966;2023-08-31T09:19:22;12.90;;;7.90;;
76136;SDS011;68622;53.128;17.966;2023-08-31T09:21:51;12.90;;;6.80;;
76136;SDS011;68622;53.128;17.966;2023-08-31T09:24:18;12.10;;;7.40;;
76136;SDS011;68622;53.128;17.966;2023-08-31T09:26:49;11.10;;;8.50;;
76136;SDS011;68622;53.128;17.966;2023-08-31T09:29:19;10.80;;;8.40;;
76136;SDS011;68622;53.128;17.966;2023-08-31T09:31:46;11.10;;;8.90;;
76136;SDS011;68622;53.128;17.966;2023-08-31T09:34:14;11.80;;;8.60;;
76136;SDS011;68622;53.128;17.966;2023-08-31T09:36:41;10.20;;;7.90;;
76136;SDS011;68622;53.128;17.966;2023-08-31T09:39:09;10.80;;;7.90;;
76136;SDS011;68622;53.128;17.966;2023-08-31T09:41:53;11.70;;;7.80;;
76136;SDS011;68622;53.128;17.966;2023-08-31T09:44:21;11.70;;;8.30;;
76136;SDS011;68622;53.128;17.966;2023-08-31T09:46:48;13.30;;;9.30;;
76136;SDS011;68622;53.128;17.966;2023-08-31T09:49:16;11.50;;;8.70;;
76136;SDS011;68622;53.128;17.966;2023-08-31T09:51:44;12.10;;;9.00;;
76136;SDS011;68622;53.128;17.966;2023-08-31T09:54:13;10.70;;;8.70;;
76136;SDS011;68622;53.128;17.966;2023-08-31T09:56:43;11.70;;;8.80;;
76136;SDS011;68622;53.128;17.966;2023-08-31T09:59:11;10.10;;;7.70;;
76136;SDS011;68622;53.128;17.966;2023-08-31T10:01:39;11.90;;;8.50;;
76136;SDS011;68622;53.128;17.966;2023-08-31T10:04:07;11.30;;;8.60;;
76136;SDS011;68622;53.128;17.966;2023-08-31T10:06:39;11.80;;;8.90;;
76136;SDS011;68622;53.128;17.966;2023-08-31T10:09:06;11.10;;;7.60;;
76136;SDS011;68622;53.128;17.966;2023-08-31T10:11:38;12.70;;;8.30;;
76136;SDS011;68622;53.128;17.966;2023-08-31T10:14:06;11.30;;;9.20;;
76136;SDS011;68622;53.128;17.966;2023-08-31T10:16:35;13.00;;;9.80;;
76136;SDS011;68622;53.128;17.966;2023-08-31T10:19:02;12.40;;;8.60;;
76136;SDS011;68622;53.128;17.966;2023-08-31T10:21:29;10.90;;;8.00;;
76136;SDS011;68622;53.128;17.966;2023-08-31T10:23:55;11.40;;;8.20;;
76136;SDS011;68622;53.128;17.966;2023-08-31T10:26:27;11.60;;;8.50;;
76136;SDS011;68622;53.128;17.966;2023-08-31T10:28:55;9.50;;;7.80;;
76136;SDS011;68622;53.128;17.966;2023-08-31T10:31:23;11.60;;;7.90;;
76136;SDS011;68622;53.128;17.966;2023-08-31T10:33:57;10.80;;;7.70;;
76136;SDS011;68622;53.128;17.966;2023-08-31T10:36:44;9.40;;;7.60;;
76136;SDS011;68622;53.128;17.966;2023-08-31T10:39:16;14.10;;;7.90;;
76136;SDS011;68622;53.128;17.966;2023-08-31T10:41:52;9.60;;;7.00;;
76136;SDS011;68622;53.128;17.966;2023-08-31T10:44:21;9.80;;;6.20;;
76136;SDS011;68622;53.128;17.966;2023-08-31T10:46:49;7.60;;;5.70;;
76136;SDS011;68622;53.128;17.966;2023-08-31T10:49:20;8.20;;;5.80;;
76136;SDS011;68622;53.128;17.966;2023-08-31T10:51:49;9.40;;;5.60;;
76136;SDS011;68622;53.128;17.966;2023-08-31T10:54:26;7.90;;;5.20;;
76136;SDS011;68622;53.128;17.966;2023-08-31T10:59:24;7.50;;;4.80;;
76136;SDS011;68622;53.128;17.966;2023-08-31T11:01:58;7.70;;;4.90;;
76136;SDS011;68622;53.128;17.966;2023-08-31T11:04:28;8.80;;;5.40;;
76136;SDS011;68622;53.128;17.966;2023-08-31T11:07:11;9.80;;;6.30;;
76136;SDS011;68622;53.128;17.966;2023-08-31T11:09:42;8.60;;;5.20;;
76136;SDS011;68622;53.128;17.966;2023-08-31T11:12:09;9.50;;;5.20;;
76136;SDS011;68622;53.128;17.966;2023-08-31T11:14:37;9.10;;;4.90;;
76136;SDS011;68622;53.128;17.966;2023-08-31T11:17:04;10.30;;;5.00;;
76136;SDS011;68622;53.128;17.966;2023-08-31T11:19:32;7.80;;;4.80;;
76136;SDS011;68622;53.128;17.966;2023-08-31T11:22:01;9.40;;;5.20;;
76136;SDS011;68622;53.128;17.966;2023-08-31T11:24:30;9.30;;;5.80;;
76136;SDS011;68622;53.128;17.966;2023-08-31T11:26:58;7.90;;;4.90;;
76136;SDS011;68622;53.128;17.966;2023-08-31T11:29:25;7.50;;;4.30;;
76136;SDS011;68622;53.128;17.966;2023-08-31T11:31:56;7.30;;;4.70;;
76136;SDS011;68622;53.128;17.966;2023-08-31T11:34:24;9.40;;;5.50;;
76136;SDS011;68622;53.128;17.966;2023-08-31T11:36:50;7.10;;;4.70;;
76136;SDS011;68622;53.128;17.966;2023-08-31T11:39:18;8.10;;;5.20;;
76136;SDS011;68622;53.128;17.966;2023-08-31T11:41:45;8.00;;;5.00;;
76136;SDS011;68622;53.128;17.966;2023-08-31T11:44:12;8.30;;;4.70;;
76136;SDS011;68622;53.128;17.966;2023-08-31T11:46:45;7.80;;;4.80;;
76136;SDS011;68622;53.128;17.966;2023-08-31T11:49:17;10.10;;;5.10;;
76136;SDS011;68622;53.128;17.966;2023-08-31T11:51:46;8.50;;;5.20;;
76136;SDS011;68622;53.128;17.966;2023-08-31T11:54:14;8.20;;;4.50;;
76136;SDS011;68622;53.128;17.966;2023-08-31T11:56:44;8.50;;;4.70;;
76136;SDS011;68622;53.128;17.966;2023-08-31T11:59:15;7.70;;;4.80;;
76136;SDS011;68622;53.128;17.966;2023-08-31T12:01:46;7.90;;;4.80;;
76136;SDS011;68622;53.128;17.966;2023-08-31T12:04:19;7.70;;;4.60;;
76136;SDS011;68622;53.128;17.966;2023-08-31T12:06:52;9.90;;;4.60;;
76136;SDS011;68622;53.128;17.966;2023-08-31T12:09:20;10.60;;;6.90;;
76136;SDS011;68622;53.128;17.966;2023-08-31T12:11:50;7.40;;;4.10;;
76136;SDS011;68622;53.128;17.966;2023-08-31T12:14:24;8.10;;;4.50;;
76136;SDS011;68622;53.128;17.966;2023-08-31T12:16:52;8.00;;;4.00;;
76136;SDS011;68622;53.128;17.966;2023-08-31T12:19:27;7.30;;;3.30;;
76136;SDS011;68622;53.128;17.966;2023-08-31T12:21:55;6.60;;;3.80;;
76136;SDS011;68622;53.128;17.966;2023-08-31T12:24:23;6.80;;;3.60;;
76136;SDS011;68622;53.128;17.966;2023-08-31T12:26:50;8.20;;;3.10;;
76136;SDS011;68622;53.128;17.966;2023-08-31T12:29:21;7.10;;;3.40;;
76136;SDS011;68622;53.128;17.966;2023-08-31T12:31:49;7.90;;;4.20;;
76136;SDS011;68622;53.128;17.966;2023-08-31T12:34:16;8.90;;;4.30;;
76136;SDS011;68622;53.128;17.966;2023-08-31T12:36:43;14.90;;;8.90;;
76136;SDS011;68622;53.128;17.966;2023-08-31T12:39:10;33.30;;;17.10;;
76136;SDS011;68622;53.128;17.966;2023-08-31T12:41:41;7.70;;;4.20;;
76136;SDS011;68622;53.128;17.966;2023-08-31T12:44:08;6.80;;;3.90;;
76136;SDS011;68622;53.128;17.966;2023-08-31T12:46:35;6.70;;;3.00;;
76136;SDS011;68622;53.128;17.966;2023-08-31T12:49:02;8.60;;;2.80;;
76136;SDS011;68622;53.128;17.966;2023-08-31T12:51:30;6.00;;;2.70;;
76136;SDS011;68622;53.128;17.966;2023-08-31T12:53:57;6.80;;;2.70;;
76136;SDS011;68622;53.128;17.966;2023-08-31T12:56:24;6.30;;;2.90;;
76136;SDS011;68622;53.128;17.966;2023-08-31T12:58:52;12.60;;;7.30;;
76136;SDS011;68622;53.128;17.966;2023-08-31T13:01:20;7.50;;;3.20;;
76136;SDS011;68622;53.128;17.966;2023-08-31T13:03:47;6.50;;;3.00;;
76136;SDS011;68622;53.128;17.966;2023-08-31T13:06:14;5.70;;;2.80;;
76136;SDS011;68622;53.128;17.966;2023-08-31T13:08:43;6.70;;;3.00;;
76136;SDS011;68622;53.128;17.966;2023-08-31T13:11:11;6.00;;;2.90;;
76136;SDS011;68622;53.128;17.966;2023-08-31T13:13:39;6.00;;;2.50;;
76136;SDS011;68622;53.128;17.966;2023-08-31T13:16:05;6.10;;;2.40;;
76136;SDS011;68622;53.128;17.966;2023-08-31T13:18:32;9.40;;;3.50;;
76136;SDS011;68622;53.128;17.966;2023-08-31T13:20:59;6.00;;;2.90;;
76136;SDS011;68622;53.128;17.966;2023-08-31T13:23:26;6.10;;;2.60;;
76136;SDS011;68622;53.128;17.966;2023-08-31T13:25:53;6.30;;;3.00;;
76136;SDS011;68622;53.128;17.966;2023-08-31T13:28:20;6.60;;;3.20;;
76136;SDS011;68622;53.128;17.966;2023-08-31T13:30:47;8.70;;;3.70;;
76136;SDS011;68622;53.128;17.966;2023-08-31T13:33:14;6.30;;;3.10;;
76136;SDS011;68622;53.128;17.966;2023-08-31T13:35:41;7.90;;;3.20;;
76136;SDS011;68622;53.128;17.966;2023-08-31T13:38:08;5.80;;;3.10;;
76136;SDS011;68622;53.128;17.966;2023-08-31T13:40:34;6.50;;;2.90;;
76136;SDS011;68622;53.128;17.966;2023-08-31T13:43:04;8.10;;;4.40;;
76136;SDS011;68622;53.128;17.966;2023-08-31T13:45:31;9.10;;;4.40;;
76136;SDS011;68622;53.128;17.966;2023-08-31T13:47:58;11.50;;;5.30;;
76136;SDS011;68622;53.128;17.966;2023-08-31T13:50:26;9.30;;;4.80;;
76136;SDS011;68622;53.128;17.966;2023-08-31T13:52:54;10.80;;;5.90;;
76136;SDS011;68622;53.128;17.966;2023-08-31T13:55:21;7.80;;;4.00;;
76136;SDS011;68622;53.128;17.966;2023-08-31T13:57:48;12.20;;;5.90;;
76136;SDS011;68622;53.128;17.966;2023-08-31T14:00:15;19.60;;;13.60;;
76136;SDS011;68622;53.128;17.966;2023-08-31T14:02:44;41.60;;;23.50;;
76136;SDS011;68622;53.128;17.966;2023-08-31T14:05:11;26.80;;;16.20;;
76136;SDS011;68622;53.128;17.966;2023-08-31T14:07:38;10.60;;;7.10;;
76136;SDS011;68622;53.128;17.966;2023-08-31T14:10:06;7.60;;;3.70;;
76136;SDS011;68622;53.128;17.966;2023-08-31T14:12:33;7.40;;;3.20;;
76136;SDS011;68622;53.128;17.966;2023-08-31T14:15:00;7.70;;;2.90;;
76136;SDS011;68622;53.128;17.966;2023-08-31T14:17:30;4.90;;;2.00;;
76136;SDS011;68622;53.128;17.966;2023-08-31T14:20:00;5.30;;;2.30;;
76136;SDS011;68622;53.128;17.966;2023-08-31T14:22:33;8.20;;;3.70;;
76136;SDS011;68622;53.128;17.966;2023-08-31T14:25:00;6.60;;;2.60;;
76136;SDS011;68622;53.128;17.966;2023-08-31T14:27:28;7.70;;;3.40;;
76136;SDS011;68622;53.128;17.966;2023-08-31T14:29:57;6.40;;;2.60;;
76136;SDS011;68622;53.128;17.966;2023-08-31T14:32:24;6.70;;;2.00;;
76136;SDS011;68622;53.128;17.966;2023-08-31T14:34:51;6.50;;;2.10;;
76136;SDS011;68622;53.128;17.966;2023-08-31T14:37:17;7.30;;;2.70;;
76136;SDS011;68622;53.128;17.966;2023-08-31T14:39:44;8.60;;;2.40;;
76136;SDS011;68622;53.128;17.966;2023-08-31T14:42:10;9.00;;;3.40;;
76136;SDS011;68622;53.128;17.966;2023-08-31T14:44:38;12.10;;;5.60;;
76136;SDS011;68622;53.128;17.966;2023-08-31T14:47:05;9.10;;;3.50;;